Time;durP1;ratioP1;P1;durP2;ratioP2;P2;SDS_P1;SDS_P2;PMS_P1;PMS_P2;Temp;Humidity;BMP_temperature;BMP_pressure;BME280_temperature;BME280_humidity;BME280_pressure;Samples;Min_cycle;Max_cycle;Signal;HPM_P1;HPM_P2
2022/11/17 00:02:23;;;;;;;9.87;6.80;;;5.50;99.90;;;;;;5029571;28;20176;-60
2022/11/17 00:04:48;;;;;;;11.80;7.60;;;5.50;99.90;;;;;;5014710;28;20208;-60
2022/11/17 00:07:14;;;;;;;9.47;6.80;;;5.50;99.90;;;;;;5030980;28;20203;-59
2022/11/17 00:09:40;;;;;;;14.50;7.73;;;5.50;99.90;;;;;;5030608;28;20163;-59
2022/11/17 00:14:50;;;;;;;13.53;7.83;;;5.50;99.90;;;;;;5026281;28;20804;-60
2022/11/17 00:17:16;;;;;;;11.83;7.60;;;5.50;99.90;;;;;;5029660;28;20455;-59
2022/11/17 00:22:28;;;;;;;20.00;6.80;;;5.50;99.90;;;;;;5021845;28;20203;-59
2022/11/17 00:24:54;;;;;;;16.93;8.30;;;5.50;99.90;;;;;;5025877;28;20435;-59
2022/11/17 00:27:19;;;;;;;17.67;9.57;;;5.50;99.90;;;;;;5033825;28;20445;-61
2022/11/17 00:29:45;;;;;;;18.03;9.40;;;5.60;99.90;;;;;;5027350;28;20254;-60
2022/11/17 00:35:00;;;;;;;12.93;6.97;;;5.60;99.90;;;;;;5032546;28;20222;-60
2022/11/17 00:37:27;;;;;;;11.13;6.63;;;5.60;99.90;;;;;;5020655;28;20850;-61
2022/11/17 00:39:53;;;;;;;15.80;7.30;;;5.60;99.90;;;;;;5026485;28;20526;-59
2022/11/17 00:42:18;;;;;;;13.67;6.93;;;5.60;99.90;;;;;;5019081;28;20510;-59
2022/11/17 00:44:44;;;;;;;13.37;7.83;;;5.60;99.90;;;;;;5006744;28;20271;-61
2022/11/17 00:47:10;;;;;;;16.73;7.77;;;5.60;99.90;;;;;;5009116;28;20235;-59
2022/11/17 00:49:36;;;;;;;10.60;7.87;;;5.50;99.90;;;;;;5018467;28;20172;-59
2022/11/17 00:52:01;;;;;;;13.53;6.83;;;5.50;99.90;;;;;;5025390;28;20431;-59
2022/11/17 00:54:27;;;;;;;13.53;6.80;;;5.50;99.90;;;;;;5030399;28;20231;-60
2022/11/17 00:56:53;;;;;;;9.90;6.37;;;5.60;99.90;;;;;;5021613;28;20313;-60
2022/11/17 00:59:19;;;;;;;16.00;8.30;;;5.60;99.90;;;;;;5023998;28;20414;-61
2022/11/17 01:01:46;;;;;;;15.57;7.23;;;5.50;99.90;;;;;;5009007;28;20186;-60
2022/11/17 01:04:13;;;;;;;12.60;6.90;;;5.60;99.90;;;;;;5027994;28;20434;-60
2022/11/17 01:06:41;;;;;;;18.53;7.70;;;5.60;99.90;;;;;;5024401;28;20428;-60
2022/11/17 01:09:16;;;;;;;13.10;9.10;;;5.60;99.90;;;;;;5024703;28;20444;-60
2022/11/17 01:11:42;;;;;;;18.77;9.03;;;5.60;99.90;;;;;;5029001;28;20437;-60
2022/11/17 01:14:12;;;;;;;13.50;8.60;;;5.60;99.90;;;;;;5027113;28;20438;-61
2022/11/17 01:16:37;;;;;;;15.43;8.83;;;5.60;99.90;;;;;;5023080;28;21036;-61
2022/11/17 01:19:03;;;;;;;13.50;7.20;;;5.60;99.90;;;;;;5020966;28;20504;-60
2022/11/17 01:21:30;;;;;;;15.30;7.47;;;5.60;99.90;;;;;;5027937;28;20184;-58
2022/11/17 01:23:57;;;;;;;13.17;7.23;;;5.60;99.90;;;;;;5006052;28;20188;-60
2022/11/17 01:26:26;;;;;;;15.17;8.30;;;5.70;99.90;;;;;;5025457;28;20547;-61
2022/11/17 01:28:52;;;;;;;10.23;7.00;;;5.70;99.90;;;;;;5032521;28;20546;-60
2022/11/17 01:31:23;;;;;;;10.40;6.70;;;5.70;99.90;;;;;;5017826;28;20439;-61
2022/11/17 01:33:49;;;;;;;13.20;7.20;;;5.70;99.90;;;;;;5022320;28;20488;-60
2022/11/17 01:36:25;;;;;;;12.33;8.50;;;5.70;99.90;;;;;;5026555;28;20458;-60
2022/11/17 01:38:51;;;;;;;20.93;7.30;;;5.70;99.90;;;;;;5007910;28;20496;-61
2022/11/17 01:41:22;;;;;;;12.97;7.83;;;5.70;99.90;;;;;;5024670;28;20434;-61
2022/11/17 01:43:56;;;;;;;12.90;7.40;;;5.70;99.90;;;;;;5020206;28;20945;-60
2022/11/17 01:46:38;;;;;;;11.37;7.17;;;5.70;99.90;;;;;;5022247;28;20441;-60
2022/11/17 01:49:11;;;;;;;11.30;7.70;;;5.70;99.90;;;;;;5027358;28;20433;-60
2022/11/17 01:51:45;;;;;;;12.77;8.30;;;5.70;99.90;;;;;;5027677;28;20734;-61
2022/11/17 01:54:16;;;;;;;12.23;8.07;;;5.70;99.90;;;;;;5029210;28;20486;-61
2022/11/17 01:56:45;;;;;;;19.77;8.13;;;5.60;99.90;;;;;;5026191;28;20458;-60
2022/11/17 01:59:34;;;;;;;15.50;8.30;;;5.60;99.90;;;;;;5020583;28;20488;-61
2022/11/17 02:02:00;;;;;;;11.30;7.10;;;5.60;99.90;;;;;;5010977;28;20521;-61
2022/11/17 02:04:30;;;;;;;15.30;8.13;;;5.70;99.90;;;;;;5028151;28;21012;-61
2022/11/17 02:07:11;;;;;;;16.57;8.00;;;5.70;99.90;;;;;;5008940;28;20873;-59
2022/11/17 02:09:39;;;;;;;16.03;8.20;;;5.70;99.90;;;;;;5036821;28;20450;-60
2022/11/17 02:12:08;;;;;;;16.90;9.03;;;5.70;99.90;;;;;;5029949;28;20479;-60
2022/11/17 02:14:35;;;;;;;11.00;7.60;;;5.70;99.90;;;;;;5032334;28;20573;-61
2022/11/17 02:17:02;;;;;;;20.40;9.40;;;5.70;99.90;;;;;;5022756;28;20934;-60
2022/11/17 02:19:34;;;;;;;13.83;8.33;;;5.70;99.90;;;;;;5031505;28;20460;-61
2022/11/17 02:22:37;;;;;;;10.43;7.10;;;5.60;99.90;;;;;;5034690;28;21022;-60
2022/11/17 02:25:38;;;;;;;14.17;8.83;;;5.60;99.90;;;;;;5028125;28;20456;-60
2022/11/17 02:28:17;;;;;;;12.13;8.67;;;5.60;99.90;;;;;;5029906;28;20456;-61
2022/11/17 02:30:59;;;;;;;16.90;9.30;;;5.60;99.90;;;;;;5027983;28;21128;-60
2022/11/17 02:33:36;;;;;;;13.97;9.23;;;5.60;99.90;;;;;;5032213;28;20498;-60
2022/11/17 02:36:19;;;;;;;17.30;9.90;;;5.60;99.90;;;;;;5029955;28;20462;-60
2022/11/17 02:38:54;;;;;;;18.13;10.20;;;5.70;99.90;;;;;;5024018;28;20538;-61
2022/11/17 02:42:00;;;;;;;16.80;11.23;;;5.70;99.90;;;;;;5032307;28;20428;-61
2022/11/17 02:45:06;;;;;;;16.80;10.63;;;5.80;99.90;;;;;;4951859;28;20425;-60
2022/11/17 02:47:36;;;;;;;16.60;8.70;;;5.90;99.90;;;;;;4947303;28;20876;-60
2022/11/17 02:50:06;;;;;;;15.90;8.23;;;5.90;99.90;;;;;;4951270;29;20425;-61
2022/11/17 02:52:32;;;;;;;15.00;8.43;;;5.90;99.90;;;;;;4985313;28;20438;-60
2022/11/17 02:55:07;;;;;;;17.80;8.60;;;5.90;99.90;;;;;;5027219;28;20856;-61
2022/11/17 02:57:38;;;;;;;15.53;8.70;;;6.00;99.90;;;;;;5033701;28;20820;-60
2022/11/17 03:00:07;;;;;;;16.10;9.70;;;6.00;99.90;;;;;;5029800;28;20485;-59
2022/11/17 03:02:57;;;;;;;15.07;9.23;;;6.00;99.90;;;;;;5030078;28;20435;-59
2022/11/17 03:05:41;;;;;;;13.57;9.20;;;6.00;99.90;;;;;;5014079;28;20410;-60
2022/11/17 03:08:23;;;;;;;18.23;8.47;;;6.00;99.90;;;;;;5027397;28;20458;-60
2022/11/17 03:11:05;;;;;;;12.83;9.27;;;6.00;99.90;;;;;;5023419;28;20434;-60
2022/11/17 03:13:49;;;;;;;19.67;10.27;;;6.00;99.90;;;;;;5029600;28;20434;-60
2022/11/17 03:16:15;;;;;;;15.20;8.97;;;6.10;99.90;;;;;;5033076;28;20483;-61
2022/11/17 03:18:48;;;;;;;16.20;10.10;;;6.10;99.90;;;;;;5025554;28;20963;-61
2022/11/17 03:21:26;;;;;;;25.00;11.40;;;6.10;99.90;;;;;;5024677;28;20223;-60
2022/11/17 03:24:04;;;;;;;13.67;9.40;;;6.20;99.90;;;;;;5018242;28;20826;-60
2022/11/17 03:26:34;;;;;;;22.47;10.33;;;6.20;99.90;;;;;;5031439;28;20414;-61
2022/11/17 03:29:03;;;;;;;15.17;8.83;;;6.20;99.90;;;;;;5024453;28;20442;-60
2022/11/17 03:31:31;;;;;;;15.10;9.60;;;6.30;99.90;;;;;;5029984;28;20435;-61
2022/11/17 03:33:58;;;;;;;16.60;9.50;;;6.30;99.90;;;;;;5027870;28;20414;-60
2022/11/17 03:36:31;;;;;;;13.20;9.47;;;6.30;99.90;;;;;;5034800;28;20528;-59
2022/11/17 03:39:09;;;;;;;14.80;9.50;;;6.30;99.90;;;;;;5033086;28;20454;-60
2022/11/17 03:41:39;;;;;;;16.10;8.47;;;6.30;99.90;;;;;;5011964;28;20437;-60
2022/11/17 03:44:05;;;;;;;16.23;9.40;;;6.40;99.90;;;;;;5030732;28;20500;-61
2022/11/17 03:46:34;;;;;;;13.10;8.40;;;6.40;99.90;;;;;;5023966;28;20851;-60
2022/11/17 03:49:33;;;;;;;19.07;9.60;;;6.40;99.90;;;;;;5030211;28;20991;-60
2022/11/17 03:51:59;;;;;;;14.30;8.33;;;6.40;99.90;;;;;;5013628;28;20446;-61
2022/11/17 03:54:25;;;;;;;11.57;8.50;;;6.40;99.90;;;;;;5006464;28;20438;-61
2022/11/17 03:57:14;;;;;;;17.27;8.43;;;6.40;99.90;;;;;;5029173;28;20462;-61
2022/11/17 03:59:52;;;;;;;14.80;8.83;;;6.40;99.90;;;;;;5029137;28;20172;-61
2022/11/17 04:02:19;;;;;;;18.07;9.57;;;6.40;99.90;;;;;;5027977;28;20406;-61
2022/11/17 04:07:29;;;;;;;15.40;9.10;;;6.40;99.90;;;;;;5024664;28;20453;-61
2022/11/17 04:09:55;;;;;;;11.47;8.70;;;6.40;99.90;;;;;;5033746;28;20431;-61
2022/11/17 04:17:50;;;;;;;16.40;9.40;;;6.50;99.90;;;;;;5025819;28;20473;-60
2022/11/17 04:20:15;;;;;;;12.37;8.80;;;6.50;99.90;;;;;;5008579;28;20454;-62
2022/11/17 04:22:41;;;;;;;15.27;9.77;;;6.50;99.90;;;;;;5024463;28;20186;-60
2022/11/17 04:25:07;;;;;;;13.20;8.43;;;6.60;99.90;;;;;;5029811;28;20705;-60
2022/11/17 04:30:17;;;;;;;20.90;9.50;;;6.60;99.90;;;;;;5030201;28;20963;-60
2022/11/17 04:32:43;;;;;;;17.17;8.80;;;6.60;99.90;;;;;;5026714;28;20438;-58
2022/11/17 04:35:08;;;;;;;16.70;9.27;;;6.70;99.90;;;;;;5029388;28;20199;-60
2022/11/17 04:37:34;;;;;;;20.50;8.63;;;6.70;99.90;;;;;;5025633;28;20203;-60
2022/11/17 04:39:59;;;;;;;11.80;8.40;;;6.70;99.90;;;;;;5011787;28;20183;-60
2022/11/17 04:42:25;;;;;;;11.17;6.13;;;6.70;99.90;;;;;;5029073;28;20573;-59
2022/11/17 04:44:50;;;;;;;8.20;6.00;;;6.80;99.90;;;;;;5029579;28;20194;-59
2022/11/17 04:47:16;;;;;;;8.30;5.20;;;6.80;99.90;;;;;;5024932;28;20708;-60
2022/11/17 04:49:42;;;;;;;7.40;5.10;;;6.90;99.90;;;;;;5033276;28;20176;-60
2022/11/17 04:52:07;;;;;;;6.00;4.60;;;6.90;99.90;;;;;;5023622;28;20902;-60
2022/11/17 04:54:33;;;;;;;9.00;5.60;;;7.00;99.90;;;;;;5023268;28;20176;-60
2022/11/17 04:56:59;;;;;;;7.37;5.50;;;7.10;99.90;;;;;;5015511;28;20281;-60
2022/11/17 04:59:24;;;;;;;5.97;4.50;;;7.10;99.90;;;;;;5005841;28;20172;-60
2022/11/17 05:01:50;;;;;;;8.73;5.50;;;7.20;99.90;;;;;;5014121;28;20175;-59
2022/11/17 05:07:03;;;;;;;6.97;5.20;;;7.20;99.90;;;;;;5019695;28;21360;-60
2022/11/17 05:09:28;;;;;;;6.23;4.97;;;7.30;99.90;;;;;;5025578;28;20466;-60
2022/11/17 05:14:38;;;;;;;7.30;5.50;;;7.30;99.90;;;;;;5027374;28;20277;-57
2022/11/17 05:17:08;;;;;;;10.87;7.00;;;7.40;99.90;;;;;;5021357;28;21017;-59
2022/11/17 05:19:45;;;;;;;7.20;6.20;;;7.40;99.90;;;;;;5016785;28;20168;-59
2022/11/17 05:25:04;;;;;;;9.00;6.43;;;7.40;99.90;;;;;;5024743;28;20454;-61
2022/11/17 05:27:32;;;;;;;9.83;4.97;;;7.50;99.90;;;;;;5024949;28;20826;-60
2022/11/17 05:29:58;;;;;;;6.00;5.20;;;7.50;99.90;;;;;;5015300;28;20427;-61
2022/11/17 05:32:23;;;;;;;7.10;5.43;;;7.50;99.90;;;;;;5021816;28;20468;-59
2022/11/17 05:34:49;;;;;;;6.17;5.37;;;7.50;99.90;;;;;;5018009;28;20774;-60
2022/11/17 05:37:15;;;;;;;8.20;5.80;;;7.50;99.90;;;;;;5021732;28;20691;-59
2022/11/17 05:39:41;;;;;;;8.00;5.60;;;7.50;99.90;;;;;;5018084;28;20666;-61
2022/11/17 05:42:06;;;;;;;8.17;5.83;;;7.50;99.90;;;;;;5020541;28;20266;-59
2022/11/17 05:44:32;;;;;;;9.33;5.97;;;7.50;99.90;;;;;;5020452;28;20287;-59
2022/11/17 05:46:57;;;;;;;9.67;5.50;;;7.50;99.90;;;;;;5021027;28;20223;-59
2022/11/17 05:49:23;;;;;;;9.20;5.43;;;7.50;99.90;;;;;;5014575;28;20176;-58
2022/11/17 05:51:49;;;;;;;8.23;4.80;;;7.50;99.90;;;;;;5020193;28;20180;-60
2022/11/17 05:54:14;;;;;;;6.67;5.80;;;7.50;99.90;;;;;;5029321;28;20172;-60
2022/11/17 05:56:42;;;;;;;7.40;5.63;;;7.50;99.90;;;;;;5028130;28;20204;-60
2022/11/17 05:59:11;;;;;;;9.70;6.10;;;7.50;99.90;;;;;;5031569;28;20167;-60
2022/11/17 06:01:42;;;;;;;7.37;5.50;;;7.50;99.90;;;;;;5019433;28;21002;-60
2022/11/17 06:04:08;;;;;;;10.90;6.37;;;7.50;99.90;;;;;;5025187;28;20453;-61
2022/11/17 06:06:36;;;;;;;8.70;5.97;;;7.50;99.90;;;;;;5012286;28;20410;-59
2022/11/17 06:09:03;;;;;;;8.17;6.37;;;7.50;99.90;;;;;;5009188;28;20465;-60
2022/11/17 06:11:28;;;;;;;8.67;6.57;;;7.50;99.90;;;;;;5028791;28;20422;-59
2022/11/17 06:13:54;;;;;;;7.90;6.00;;;7.50;99.90;;;;;;5028895;28;20411;-60
2022/11/17 06:16:24;;;;;;;9.17;5.80;;;7.50;99.90;;;;;;5021500;28;20191;-60
2022/11/17 06:18:59;;;;;;;6.30;5.10;;;7.50;99.90;;;;;;5011009;28;20195;-59
2022/11/17 06:21:25;;;;;;;7.43;5.17;;;7.50;99.90;;;;;;5029371;28;20420;-60
2022/11/17 06:23:50;;;;;;;5.97;4.90;;;7.50;99.90;;;;;;5034935;28;20796;-59
2022/11/17 06:26:16;;;;;;;5.90;5.17;;;7.50;99.90;;;;;;5025320;28;20172;-60
2022/11/17 06:28:46;;;;;;;7.00;5.43;;;7.40;99.90;;;;;;5028852;28;20196;-59
2022/11/17 06:31:12;;;;;;;6.53;5.10;;;7.40;99.90;;;;;;5012636;28;20176;-59
2022/11/17 06:33:38;;;;;;;10.00;5.00;;;7.40;99.90;;;;;;5020757;28;20443;-59
2022/11/17 06:36:05;;;;;;;7.00;5.10;;;7.40;99.90;;;;;;5028365;28;20957;-59
2022/11/17 06:38:34;;;;;;;6.97;5.50;;;7.30;99.90;;;;;;5028491;28;20461;-59
2022/11/17 06:41:00;;;;;;;6.60;4.53;;;7.30;99.90;;;;;;5028505;28;20797;-60
2022/11/17 06:43:26;;;;;;;11.07;5.87;;;7.20;99.90;;;;;;5027928;28;20438;-60
2022/11/17 06:45:52;;;;;;;8.83;5.90;;;7.20;99.90;;;;;;5024799;28;20472;-59
2022/11/17 06:48:25;;;;;;;6.70;5.60;;;7.20;99.90;;;;;;5031191;28;20211;-60
2022/11/17 06:50:51;;;;;;;8.43;5.50;;;7.20;99.90;;;;;;5028606;28;20194;-60
2022/11/17 06:53:17;;;;;;;9.90;5.90;;;7.20;99.90;;;;;;5028949;28;20897;-61
2022/11/17 06:55:48;;;;;;;10.73;5.90;;;7.20;99.90;;;;;;5014281;28;20493;-60
2022/11/17 06:58:14;;;;;;;8.77;6.40;;;7.20;99.90;;;;;;5029797;28;20200;-60
2022/11/17 07:00:39;;;;;;;14.93;10.80;;;7.30;99.90;;;;;;5024880;28;20478;-60
2022/11/17 07:03:08;;;;;;;11.90;9.20;;;7.30;99.90;;;;;;5030915;28;20186;-60
2022/11/17 07:05:36;;;;;;;16.37;10.97;;;7.30;99.90;;;;;;5013993;28;20262;-60
2022/11/17 07:08:04;;;;;;;18.73;11.30;;;7.30;99.90;;;;;;5030999;28;20461;-60
2022/11/17 07:10:31;;;;;;;16.90;8.37;;;7.30;99.90;;;;;;5025231;28;20433;-60
2022/11/17 07:12:57;;;;;;;9.30;7.30;;;7.30;99.90;;;;;;5028018;28;20867;-60
2022/11/17 07:15:23;;;;;;;7.00;5.23;;;7.30;99.90;;;;;;5014026;28;20529;-60
2022/11/17 07:17:49;;;;;;;12.10;5.80;;;7.40;99.90;;;;;;5029305;28;20470;-60
2022/11/17 07:20:15;;;;;;;7.00;4.93;;;7.40;99.90;;;;;;5020746;28;20796;-60
2022/11/17 07:22:41;;;;;;;8.37;5.27;;;7.50;99.90;;;;;;5031842;28;20233;-59
2022/11/17 07:25:07;;;;;;;6.40;4.77;;;7.60;99.90;;;;;;5030578;28;21020;-61
2022/11/17 07:27:33;;;;;;;7.03;5.40;;;7.70;99.90;;;;;;5025065;28;20685;-60
2022/11/17 07:29:58;;;;;;;6.70;5.30;;;7.70;99.90;;;;;;5030400;28;20457;-61
2022/11/17 07:32:24;;;;;;;6.97;5.57;;;7.80;99.90;;;;;;5031163;28;20232;-60
2022/11/17 07:34:50;;;;;;;8.97;6.70;;;7.80;99.90;;;;;;5010022;28;20230;-60
2022/11/17 07:37:15;;;;;;;10.07;6.60;;;7.90;99.90;;;;;;5027715;28;20210;-60
2022/11/17 07:39:41;;;;;;;7.63;5.30;;;8.00;99.90;;;;;;5029855;28;20180;-60
2022/11/17 07:42:07;;;;;;;7.50;5.23;;;8.00;99.90;;;;;;5030819;28;20310;-61
2022/11/17 07:44:33;;;;;;;8.80;5.00;;;8.10;99.90;;;;;;5032560;28;20541;-60
2022/11/17 07:46:59;;;;;;;11.57;6.00;;;8.10;99.90;;;;;;5021942;28;20208;-61
2022/11/17 07:49:26;;;;;;;9.87;5.30;;;8.20;99.90;;;;;;5032024;28;20173;-59
2022/11/17 07:51:52;;;;;;;9.80;6.13;;;8.20;99.90;;;;;;5032526;28;20445;-59
2022/11/17 07:54:17;;;;;;;8.87;6.27;;;8.20;99.90;;;;;;5017236;28;20779;-60
2022/11/17 07:56:43;;;;;;;8.13;6.20;;;8.20;99.90;;;;;;5030710;28;20647;-60
2022/11/17 07:59:09;;;;;;;10.30;6.23;;;8.30;99.90;;;;;;5030035;28;20172;-60
2022/11/17 08:01:34;;;;;;;11.77;7.00;;;8.30;99.90;;;;;;5024116;28;21061;-60
2022/11/17 08:04:00;;;;;;;11.10;6.50;;;8.30;99.90;;;;;;5029800;28;20432;-60
2022/11/17 08:06:26;;;;;;;8.70;6.27;;;8.40;99.90;;;;;;5029890;28;20302;-60
2022/11/17 08:08:53;;;;;;;11.63;6.63;;;8.40;99.90;;;;;;5028395;28;20448;-60
2022/11/17 08:11:19;;;;;;;9.63;6.00;;;8.40;99.90;;;;;;5031349;28;20679;-60
2022/11/17 08:13:45;;;;;;;15.43;6.40;;;8.40;99.90;;;;;;5033288;28;20430;-60
2022/11/17 08:16:11;;;;;;;12.37;6.03;;;8.40;99.90;;;;;;5030536;28;20877;-60
2022/11/17 08:18:37;;;;;;;13.43;6.73;;;8.40;99.90;;;;;;5028156;28;20765;-61
2022/11/17 08:21:22;;;;;;;17.03;6.90;;;8.40;99.90;;;;;;5010515;28;20431;-60
2022/11/17 08:23:51;;;;;;;10.67;6.23;;;8.40;99.90;;;;;;5011832;28;20521;-60
2022/11/17 08:26:19;;;;;;;9.83;5.23;;;8.40;99.90;;;;;;5032169;28;20900;-60
2022/11/17 08:28:45;;;;;;;7.60;5.23;;;8.40;99.90;;;;;;5027850;28;20473;-61
2022/11/17 08:31:11;;;;;;;9.03;5.97;;;8.40;99.90;;;;;;5029259;28;20435;-60
2022/11/17 08:33:37;;;;;;;9.50;6.60;;;8.40;99.90;;;;;;5030606;28;20449;-60
2022/11/17 08:36:04;;;;;;;14.20;7.97;;;8.40;99.90;;;;;;5032496;28;20203;-60
2022/11/17 08:38:30;;;;;;;12.43;7.20;;;8.40;99.90;;;;;;5028075;28;20686;-60
2022/11/17 08:41:04;;;;;;;10.90;6.80;;;8.40;99.90;;;;;;5027625;28;20430;-60
2022/11/17 08:43:30;;;;;;;12.87;5.40;;;8.40;99.90;;;;;;5028882;28;20168;-60
2022/11/17 08:45:55;;;;;;;7.77;4.80;;;8.40;99.90;;;;;;5022390;28;21164;-60
2022/11/17 08:48:21;;;;;;;7.27;4.43;;;8.50;99.90;;;;;;5027988;28;21043;-60
2022/11/17 08:50:47;;;;;;;5.40;3.50;;;8.50;99.90;;;;;;5029466;28;20306;-60
2022/11/17 08:53:14;;;;;;;8.53;2.70;;;8.50;99.90;;;;;;5028104;28;20168;-60
2022/11/17 08:55:40;;;;;;;3.73;3.33;;;8.50;99.90;;;;;;5025511;28;20953;-61
2022/11/17 08:58:05;;;;;;;8.53;3.60;;;8.50;99.90;;;;;;5029757;28;20510;-60
2022/11/17 09:00:31;;;;;;;4.67;2.80;;;8.60;99.90;;;;;;5011118;28;20184;-60
2022/11/17 09:02:57;;;;;;;2.00;1.57;;;8.60;99.90;;;;;;5026328;28;20168;-60
2022/11/17 09:05:23;;;;;;;4.63;1.57;;;8.60;99.90;;;;;;5026554;28;20250;-61
2022/11/17 09:07:49;;;;;;;1.90;1.50;;;8.60;99.90;;;;;;5029558;28;20199;-60
2022/11/17 09:10:15;;;;;;;3.90;1.70;;;8.70;99.90;;;;;;5031621;28;20421;-60
2022/11/17 09:12:41;;;;;;;2.03;1.40;;;8.70;99.90;;;;;;5017915;28;20199;-61
2022/11/17 09:15:07;;;;;;;11.53;3.93;;;8.70;99.90;;;;;;5029375;28;20226;-60
2022/11/17 09:17:33;;;;;;;2.97;1.70;;;8.80;99.90;;;;;;5026077;28;20245;-60
2022/11/17 09:19:58;;;;;;;2.50;1.23;;;8.80;99.90;;;;;;5028750;28;20410;-60
2022/11/17 09:22:24;;;;;;;2.80;1.27;;;8.90;99.90;;;;;;5030565;28;20172;-60
2022/11/17 09:24:49;;;;;;;1.10;1.00;;;8.90;99.90;;;;;;5027665;28;20176;-60
2022/11/17 09:27:15;;;;;;;4.13;1.53;;;8.90;99.90;;;;;;5028784;28;20207;-60
2022/11/17 09:29:40;;;;;;;1.80;1.47;;;8.90;99.90;;;;;;5028787;28;20199;-60
2022/11/17 09:32:06;;;;;;;1.43;1.10;;;8.90;99.90;;;;;;5024138;28;20697;-60
2022/11/17 09:34:32;;;;;;;1.90;1.23;;;8.80;99.90;;;;;;5027931;28;20198;-60
2022/11/17 09:36:57;;;;;;;1.00;0.90;;;8.80;99.90;;;;;;5025071;28;20754;-61
2022/11/17 09:39:23;;;;;;;0.90;0.90;;;8.70;99.90;;;;;;5025987;28;20172;-58
2022/11/17 09:41:52;;;;;;;1.37;0.90;;;8.70;99.90;;;;;;5020530;28;20554;-61
2022/11/17 09:44:39;;;;;;;1.03;0.80;;;8.60;99.90;;;;;;5027171;28;20183;-59
2022/11/17 09:47:42;;;;;;;1.00;0.87;;;8.60;99.90;;;;;;5021655;28;20462;-60
2022/11/17 09:50:26;;;;;;;0.80;0.80;;;8.50;99.90;;;;;;5022183;28;20438;-59
2022/11/17 09:53:16;;;;;;;0.80;0.80;;;8.40;99.90;;;;;;5022749;28;20941;-59
2022/11/17 09:55:45;;;;;;;0.90;0.90;;;8.40;99.90;;;;;;5019726;28;20567;-62
2022/11/17 09:58:30;;;;;;;3.33;0.90;;;8.40;99.90;;;;;;5023046;28;20438;-58
2022/11/17 10:00:56;;;;;;;1.80;0.93;;;8.40;99.90;;;;;;5028527;28;20402;-57
2022/11/17 10:03:27;;;;;;;1.30;1.00;;;8.50;99.90;;;;;;5024516;28;20434;-59
2022/11/17 10:05:54;;;;;;;1.73;0.90;;;8.50;99.90;;;;;;5026063;28;20430;-59
2022/11/17 10:08:36;;;;;;;1.17;0.90;;;8.60;99.90;;;;;;5007072;28;20512;-57
2022/11/17 10:11:30;;;;;;;1.70;1.00;;;8.60;99.90;;;;;;5028559;28;20434;-59
2022/11/17 10:13:49;;;;;;;2.10;1.10;;;8.70;99.90;;;;;;5027276;28;20800;-58
2022/11/17 10:16:15;;;;;;;1.87;1.10;;;8.90;99.90;;;;;;5028043;28;20489;-58
2022/11/17 10:18:40;;;;;;;2.90;1.50;;;9.00;99.90;;;;;;5028251;28;21166;-57
2022/11/17 10:21:08;;;;;;;1.40;1.30;;;9.10;99.90;;;;;;5028497;28;20186;-58
2022/11/17 10:23:39;;;;;;;4.67;1.17;;;9.20;99.90;;;;;;5035071;28;20548;-58
2022/11/17 10:26:13;;;;;;;1.40;1.30;;;9.20;99.90;;;;;;5034095;28;21033;-58
2022/11/17 10:28:38;;;;;;;2.93;1.10;;;9.30;99.90;;;;;;5029674;28;21142;-57
2022/11/17 10:31:17;;;;;;;2.10;1.20;;;9.30;99.90;;;;;;5028047;28;20484;-58
2022/11/17 10:33:46;;;;;;;2.07;1.10;;;9.40;99.90;;;;;;5028110;28;20176;-58
2022/11/17 10:36:30;;;;;;;2.20;1.20;;;9.50;99.90;;;;;;5028974;28;20550;-58
2022/11/17 10:38:57;;;;;;;3.97;1.03;;;9.60;99.90;;;;;;5031918;28;20446;-58
2022/11/17 10:41:37;;;;;;;4.30;1.60;;;9.70;99.90;;;;;;5030586;28;20444;-57
2022/11/17 10:44:16;;;;;;;2.10;1.07;;;9.80;99.90;;;;;;5025267;28;20426;-56
2022/11/17 10:47:06;;;;;;;1.50;1.00;;;9.90;99.90;;;;;;5026784;28;20437;-58
2022/11/17 10:49:39;;;;;;;1.73;1.27;;;10.10;99.90;;;;;;5027817;28;20461;-58
2022/11/17 10:52:17;;;;;;;2.90;1.17;;;10.30;99.90;;;;;;5029180;28;20513;-60
2022/11/17 10:54:43;;;;;;;4.07;1.33;;;10.50;99.90;;;;;;5029786;28;20511;-57
2022/11/17 10:57:19;;;;;;;10.30;1.53;;;10.50;99.90;;;;;;5009985;28;20454;-57
2022/11/17 10:59:53;;;;;;;1.97;1.30;;;10.50;99.90;;;;;;5030685;28;20259;-57
2022/11/17 11:02:38;;;;;;;4.53;1.23;;;10.50;99.90;;;;;;5023286;28;20948;-58
2022/11/17 11:05:17;;;;;;;4.00;1.30;;;10.60;99.90;;;;;;5025165;28;20426;-59
2022/11/17 11:07:43;;;;;;;9.33;1.70;;;10.70;99.90;;;;;;5023424;28;20456;-59
2022/11/17 11:10:22;;;;;;;5.30;1.83;;;10.80;99.90;;;;;;5025312;28;20514;-59
2022/11/17 11:13:09;;;;;;;4.53;1.20;;;10.90;99.90;;;;;;5025667;28;20258;-59
2022/11/17 11:15:35;;;;;;;6.07;1.73;;;10.80;99.90;;;;;;5025051;28;20468;-57
2022/11/17 11:18:06;;;;;;;6.37;2.10;;;10.80;99.90;;;;;;5037075;28;20453;-59
2022/11/17 11:21:13;;;;;;;10.93;2.83;;;10.70;99.90;;;;;;5026212;28;20438;-53
2022/11/17 11:23:44;;;;;;;6.47;2.00;;;10.60;99.90;;;;;;4963249;28;20483;-54
2022/11/17 11:26:25;;;;;;;5.43;1.83;;;10.60;99.90;;;;;;5016120;28;20466;-52
2022/11/17 11:29:00;;;;;;;4.80;2.07;;;10.70;99.90;;;;;;5024687;28;20454;-53
2022/11/17 11:31:29;;;;;;;5.50;1.70;;;10.80;99.90;;;;;;5028567;28;20430;-53
2022/11/17 11:34:02;;;;;;;6.30;1.83;;;10.80;99.90;;;;;;5030380;28;20477;-54
2022/11/17 11:36:46;;;;;;;5.90;1.70;;;10.80;99.90;;;;;;5029359;28;20569;-54
2022/11/17 11:39:38;;;;;;;15.40;3.73;;;10.90;99.90;;;;;;5025713;28;20864;-56
2022/11/17 11:42:39;;;;;;;10.03;2.30;;;11.00;99.90;;;;;;5025183;28;20466;-56
2022/11/17 11:45:26;;;;;;;7.90;1.73;;;11.30;99.90;;;;;;5023580;28;20422;-56
2022/11/17 11:48:19;;;;;;;6.40;2.30;;;11.40;99.90;;;;;;5027224;28;20474;-56
2022/11/17 11:50:56;;;;;;;6.67;2.43;;;11.40;99.90;;;;;;5025728;28;20438;-56
2022/11/17 11:53:34;;;;;;;10.20;2.20;;;11.40;99.90;;;;;;5024587;28;20430;-55
2022/11/17 11:56:20;;;;;;;14.63;2.73;;;11.30;99.90;;;;;;5028259;28;20461;-57
2022/11/17 11:59:27;;;;;;;11.40;2.27;;;11.30;99.90;;;;;;5029188;28;20474;-55
2022/11/17 12:02:11;;;;;;;9.33;2.80;;;11.30;99.90;;;;;;5027465;28;20426;-55
2022/11/17 12:04:49;;;;;;;8.87;2.10;;;11.20;99.90;;;;;;5019994;28;20431;-54
2022/11/17 12:07:28;;;;;;;3.37;1.80;;;11.20;99.90;;;;;;5023424;28;22103;-58
2022/11/17 12:09:58;;;;;;;8.37;2.07;;;11.20;99.90;;;;;;5029566;28;20439;-58
2022/11/17 12:12:31;;;;;;;6.87;1.93;;;11.20;99.90;;;;;;5023398;28;20427;-58
2022/11/17 12:15:10;;;;;;;8.70;2.27;;;11.10;99.90;;;;;;5028098;28;20439;-58
2022/11/17 12:18:06;;;;;;;6.57;1.97;;;11.10;99.90;;;;;;5013526;28;20446;-57
2022/11/17 12:20:37;;;;;;;6.13;1.90;;;11.20;99.90;;;;;;5007304;28;21145;-57
2022/11/17 12:23:21;;;;;;;11.03;2.63;;;11.20;97.50;;;;;;5026359;28;20495;-58
2022/11/17 12:25:50;;;;;;;11.23;1.90;;;11.20;97.90;;;;;;5024236;28;20434;-58
2022/11/17 12:28:37;;;;;;;8.00;2.00;;;11.30;96.30;;;;;;5026173;28;20450;-56
2022/11/17 12:31:04;;;;;;;5.50;1.77;;;11.30;95.30;;;;;;5030248;28;20414;-60
2022/11/17 12:33:58;;;;;;;4.03;1.40;;;11.20;94.80;;;;;;5030557;28;20433;-56
2022/11/17 12:36:30;;;;;;;6.20;2.10;;;11.30;95.20;;;;;;4989090;28;20490;-57
2022/11/17 12:39:00;;;;;;;6.00;1.90;;;11.30;89.80;;;;;;5028631;28;20438;-57
2022/11/17 12:41:48;;;;;;;10.60;2.17;;;11.30;87.10;;;;;;5030052;28;20475;-56
2022/11/17 12:44:35;;;;;;;8.40;2.10;;;11.30;91.80;;;;;;5025214;28;20427;-57
2022/11/17 12:47:11;;;;;;;20.47;2.23;;;11.30;90.30;;;;;;5011362;28;20459;-60
2022/11/17 12:49:48;;;;;;;8.20;2.43;;;11.40;87.50;;;;;;5024160;28;20446;-58
2022/11/17 12:52:22;;;;;;;7.80;1.90;;;11.50;91.80;;;;;;5021499;28;20433;-58
2022/11/17 12:54:57;;;;;;;9.77;2.60;;;11.50;92.00;;;;;;5024828;28;20936;-59
2022/11/17 12:57:29;;;;;;;7.90;2.13;;;11.60;85.00;;;;;;5025218;28;21064;-58
2022/11/17 13:00:09;;;;;;;7.30;2.10;;;11.60;83.40;;;;;;5030452;28;20525;-58
2022/11/17 13:02:41;;;;;;;6.70;1.70;;;11.60;79.90;;;;;;5029417;28;20487;-59
2022/11/17 13:05:13;;;;;;;7.90;1.80;;;11.70;77.10;;;;;;5027594;28;20443;-59
2022/11/17 13:07:38;;;;;;;9.57;2.20;;;11.70;78.10;;;;;;5029420;28;20435;-59
2022/11/17 13:10:04;;;;;;;10.73;1.80;;;11.80;82.00;;;;;;5009298;28;20411;-60
2022/11/17 13:12:32;;;;;;;7.30;2.60;;;11.80;75.00;;;;;;5024509;28;20528;-59
2022/11/17 13:15:03;;;;;;;8.63;2.07;;;11.90;77.20;;;;;;5031558;28;20191;-58
2022/11/17 13:17:42;;;;;;;18.73;1.90;;;12.00;80.00;;;;;;5028167;28;20474;-60
2022/11/17 13:20:11;;;;;;;8.90;2.00;;;12.10;81.00;;;;;;5031332;28;20504;-59
2022/11/17 13:22:36;;;;;;;11.27;2.23;;;12.20;79.80;;;;;;5027650;28;20418;-59
2022/11/17 13:25:19;;;;;;;7.37;1.90;;;12.30;77.60;;;;;;5029825;28;20779;-59
2022/11/17 13:27:45;;;;;;;7.97;1.63;;;12.50;76.30;;;;;;5029729;28;20180;-59
2022/11/17 13:30:20;;;;;;;7.27;2.20;;;12.70;73.60;;;;;;5010631;28;20437;-59
2022/11/17 13:32:46;;;;;;;5.80;2.13;;;12.90;70.80;;;;;;5029370;28;20624;-59
2022/11/17 13:35:29;;;;;;;10.33;2.10;;;13.10;73.00;;;;;;5029300;28;20493;-58
2022/11/17 13:38:19;;;;;;;6.57;1.80;;;13.20;66.30;;;;;;5027648;28;20188;-58
2022/11/17 13:40:47;;;;;;;12.53;2.30;;;13.30;66.70;;;;;;5026261;28;20806;-58